Time;durP1;ratioP1;P1;durP2;ratioP2;P2;SDS_P1;SDS_P2;PMS_P1;PMS_P2;Temp;Humidity;BMP_temperature;BMP_pressure;BME280_temperature;BME280_humidity;BME280_pressure;Samples;Min_cycle;Max_cycle;Signal;HPM_P1;HPM_P2
2023/09/29 00:04:49;;;;;;;8.68;4.10;;;;;;;;;;10481382;28;20535;-77
2023/09/29 00:09:51;;;;;;;8.00;4.10;;;;;;;;;;10473503;28;20455;-78
2023/09/29 00:14:56;;;;;;;8.68;4.07;;;;;;;;;;10480627;28;20428;-77
2023/09/29 00:19:58;;;;;;;10.07;4.20;;;;;;;;;;10478932;28;20521;-77
2023/09/29 00:25:01;;;;;;;8.40;4.33;;;;;;;;;;10478941;28;20480;-78
2023/09/29 00:30:06;;;;;;;8.23;4.03;;;;;;;;;;10480182;28;20507;-78
2023/09/29 00:35:11;;;;;;;9.03;4.00;;;;;;;;;;10483992;28;20964;-78
2023/09/29 00:40:14;;;;;;;8.40;4.10;;;;;;;;;;10478075;28;20900;-78
2023/09/29 00:45:23;;;;;;;8.57;4.37;;;;;;;;;;10476646;28;20843;-77
2023/09/29 00:50:27;;;;;;;8.30;3.85;;;;;;;;;;10479182;28;20431;-79
2023/09/29 00:55:30;;;;;;;7.77;3.97;;;;;;;;;;10477599;28;20434;-79
2023/09/29 01:00:37;;;;;;;8.47;4.10;;;;;;;;;;10476012;28;20860;-78
2023/09/29 01:05:42;;;;;;;7.35;3.60;;;;;;;;;;10481580;28;20435;-78
2023/09/29 01:10:45;;;;;;;7.80;3.75;;;;;;;;;;10479797;28;20985;-78
2023/09/29 01:15:54;;;;;;;7.82;3.83;;;;;;;;;;10481408;28;20493;-79
2023/09/29 01:20:57;;;;;;;8.60;4.10;;;;;;;;;;10484706;28;20886;-78
2023/09/29 01:26:02;;;;;;;7.90;4.28;;;;;;;;;;10483559;28;20435;-78
2023/09/29 01:31:06;;;;;;;8.00;4.13;;;;;;;;;;10489065;28;20431;-79
2023/09/29 01:36:09;;;;;;;7.75;3.88;;;;;;;;;;10492013;28;20472;-81
2023/09/29 01:41:14;;;;;;;8.95;3.95;;;;;;;;;;10488643;28;20444;-80
2023/09/29 01:46:18;;;;;;;9.73;4.05;;;;;;;;;;10491539;28;20424;-79
2023/09/29 01:51:21;;;;;;;9.47;3.80;;;;;;;;;;10482355;28;20419;-81
2023/09/29 01:56:26;;;;;;;9.40;4.07;;;;;;;;;;10489697;28;20427;-80
2023/09/29 02:01:29;;;;;;;11.32;4.40;;;;;;;;;;10482147;28;20488;-79
2023/09/29 02:06:32;;;;;;;8.10;3.80;;;;;;;;;;10479200;28;20435;-78
2023/09/29 02:11:38;;;;;;;7.03;3.30;;;;;;;;;;10480693;28;20493;-79
2023/09/29 02:16:40;;;;;;;8.65;3.40;;;;;;;;;;10485829;28;20419;-78
2023/09/29 02:21:45;;;;;;;7.65;3.85;;;;;;;;;;10479531;28;20420;-79
2023/09/29 02:26:50;;;;;;;9.97;4.03;;;;;;;;;;10476528;28;20877;-79
2023/09/29 02:31:55;;;;;;;8.88;4.40;;;;;;;;;;10491523;28;20433;-78
2023/09/29 02:36:59;;;;;;;9.13;3.97;;;;;;;;;;10479294;28;20522;-78
2023/09/29 02:42:04;;;;;;;9.67;4.60;;;;;;;;;;10480993;28;20552;-78
2023/09/29 02:47:06;;;;;;;7.53;3.80;;;;;;;;;;10474996;28;20514;-78
2023/09/29 02:52:09;;;;;;;9.02;3.92;;;;;;;;;;10473457;28;20416;-78
2023/09/29 02:57:14;;;;;;;7.88;3.90;;;;;;;;;;10482406;28;20482;-77
2023/09/29 03:02:17;;;;;;;8.68;4.15;;;;;;;;;;10508661;28;20419;-77
2023/09/29 03:07:19;;;;;;;7.45;3.50;;;;;;;;;;10482471;28;20427;-78
2023/09/29 03:12:25;;;;;;;7.63;3.90;;;;;;;;;;10481370;28;20428;-78
2023/09/29 03:17:30;;;;;;;7.70;3.90;;;;;;;;;;10482488;28;20998;-78
2023/09/29 03:22:33;;;;;;;7.87;3.60;;;;;;;;;;10481514;28;20443;-78
2023/09/29 03:27:38;;;;;;;6.73;3.10;;;;;;;;;;10481227;28;20514;-79
2023/09/29 03:32:41;;;;;;;5.47;2.90;;;;;;;;;;10482060;28;20648;-79
2023/09/29 03:37:45;;;;;;;7.75;3.53;;;;;;;;;;10478112;28;20435;-79
2023/09/29 03:42:49;;;;;;;6.32;2.88;;;;;;;;;;10480148;28;20473;-79
2023/09/29 03:47:54;;;;;;;7.03;3.20;;;;;;;;;;10477239;28;20519;-78
2023/09/29 03:52:57;;;;;;;5.87;3.07;;;;;;;;;;10479569;28;20897;-79
2023/09/29 03:58:01;;;;;;;6.78;3.30;;;;;;;;;;10481636;28;20462;-79
2023/09/29 04:03:04;;;;;;;7.90;3.27;;;;;;;;;;10482242;28;20424;-79
2023/09/29 04:08:07;;;;;;;6.88;3.25;;;;;;;;;;10484813;28;20524;-77
2023/09/29 04:13:11;;;;;;;6.05;3.33;;;;;;;;;;10479605;28;20512;-77
2023/09/29 04:18:14;;;;;;;8.75;3.67;;;;;;;;;;10479515;28;21457;-78
2023/09/29 04:23:17;;;;;;;7.00;3.10;;;;;;;;;;10477014;28;20964;-78
2023/09/29 04:28:22;;;;;;;7.20;3.50;;;;;;;;;;10474065;28;20424;-78
2023/09/29 04:33:24;;;;;;;9.02;3.42;;;;;;;;;;10482541;28;20447;-78
2023/09/29 04:38:27;;;;;;;8.27;3.40;;;;;;;;;;10481211;28;20419;-78
2023/09/29 04:43:31;;;;;;;7.03;3.45;;;;;;;;;;10481903;28;20510;-78
2023/09/29 04:48:34;;;;;;;8.07;3.90;;;;;;;;;;10476683;28;20610;-78
2023/09/29 04:53:36;;;;;;;8.57;3.75;;;;;;;;;;10476252;28;20431;-78
2023/09/29 04:58:40;;;;;;;7.63;3.60;;;;;;;;;;10479248;28;20427;-77
2023/09/29 05:03:43;;;;;;;7.88;3.65;;;;;;;;;;10475648;28;20436;-79
2023/09/29 05:08:46;;;;;;;5.65;3.00;;;;;;;;;;10476086;28;21002;-80
2023/09/29 05:13:50;;;;;;;7.18;3.38;;;;;;;;;;10479235;28;20427;-79
2023/09/29 05:18:53;;;;;;;8.30;3.70;;;;;;;;;;10479959;28;20532;-80
2023/09/29 05:23:56;;;;;;;8.07;4.00;;;;;;;;;;10476332;28;20411;-79
2023/09/29 05:29:00;;;;;;;8.70;3.50;;;;;;;;;;10493634;28;20434;-80
2023/09/29 05:34:03;;;;;;;7.63;3.90;;;;;;;;;;10473929;28;20543;-81
2023/09/29 05:39:05;;;;;;;9.60;3.65;;;;;;;;;;10476701;28;20507;-79
2023/09/29 05:44:09;;;;;;;10.25;4.25;;;;;;;;;;10476983;28;20427;-79
2023/09/29 05:49:12;;;;;;;10.47;3.83;;;;;;;;;;10479587;28;20431;-78
2023/09/29 05:54:15;;;;;;;9.50;3.97;;;;;;;;;;10473286;28;20415;-80
2023/09/29 05:59:19;;;;;;;9.13;3.60;;;;;;;;;;10479879;28;20463;-79
2023/09/29 06:04:22;;;;;;;8.43;3.47;;;;;;;;;;10487425;28;20911;-78
2023/09/29 06:09:26;;;;;;;8.60;3.53;;;;;;;;;;10488734;28;20427;-80
2023/09/29 06:14:32;;;;;;;9.95;3.63;;;;;;;;;;10485843;28;21021;-79
2023/09/29 06:19:35;;;;;;;9.68;3.83;;;;;;;;;;10483799;28;20435;-81
2023/09/29 06:24:37;;;;;;;11.07;4.05;;;;;;;;;;10481482;28;20546;-82
2023/09/29 06:29:46;;;;;;;9.55;3.90;;;;;;;;;;10484890;28;20431;-82
2023/09/29 06:34:49;;;;;;;9.48;3.60;;;;;;;;;;10483338;28;20506;-83
2023/09/29 06:39:52;;;;;;;7.18;3.45;;;;;;;;;;10478306;28;20939;-82
2023/09/29 06:44:56;;;;;;;9.13;3.80;;;;;;;;;;10481954;28;20522;-83
2023/09/29 06:49:59;;;;;;;7.18;3.35;;;;;;;;;;10483091;28;20437;-82
2023/09/29 06:55:02;;;;;;;8.05;3.42;;;;;;;;;;10478568;28;20866;-82
2023/09/29 07:00:08;;;;;;;6.97;3.50;;;;;;;;;;10479886;28;20427;-83
2023/09/29 07:05:11;;;;;;;8.10;3.75;;;;;;;;;;10480947;28;20475;-83
2023/09/29 07:10:14;;;;;;;9.93;3.80;;;;;;;;;;10476720;28;20427;-85
2023/09/29 07:15:18;;;;;;;6.80;3.63;;;;;;;;;;10481135;28;20415;-82
2023/09/29 07:20:24;;;;;;;8.03;4.07;;;;;;;;;;10475746;28;20792;-82
2023/09/29 07:25:27;;;;;;;8.93;4.00;;;;;;;;;;10478061;28;20427;-84
2023/09/29 07:30:31;;;;;;;8.65;3.83;;;;;;;;;;10480524;28;20523;-84
2023/09/29 07:35:34;;;;;;;9.32;4.00;;;;;;;;;;10479198;28;20983;-83
2023/09/29 07:40:37;;;;;;;6.82;3.55;;;;;;;;;;10478243;28;21754;-83
2023/09/29 07:45:41;;;;;;;7.00;3.88;;;;;;;;;;10476841;28;20435;-83
2023/09/29 07:50:44;;;;;;;9.43;3.90;;;;;;;;;;10479185;28;20963;-83
2023/09/29 07:55:46;;;;;;;7.90;3.80;;;;;;;;;;10481305;28;20789;-83
2023/09/29 08:00:50;;;;;;;6.03;3.40;;;;;;;;;;10480369;28;20892;-84
2023/09/29 08:05:54;;;;;;;6.88;3.70;;;;;;;;;;10478101;28;20436;-83
2023/09/29 08:10:57;;;;;;;5.00;3.40;;;;;;;;;;10478037;28;20450;-83
2023/09/29 08:16:01;;;;;;;5.30;3.30;;;;;;;;;;10481951;28;20992;-83
2023/09/29 08:21:04;;;;;;;5.55;3.50;;;;;;;;;;10478336;28;20427;-84
2023/09/29 08:26:06;;;;;;;4.57;3.30;;;;;;;;;;10476196;28;20435;-84
2023/09/29 08:31:15;;;;;;;6.63;3.43;;;;;;;;;;10477432;28;20849;-82
2023/09/29 08:36:18;;;;;;;5.15;3.45;;;;;;;;;;10478839;28;20515;-83
2023/09/29 08:41:24;;;;;;;6.82;3.67;;;;;;;;;;10474486;28;20462;-83
2023/09/29 08:46:29;;;;;;;5.90;3.90;;;;;;;;;;10474502;28;20418;-82
2023/09/29 08:51:33;;;;;;;5.35;3.40;;;;;;;;;;10475058;28;20430;-82
2023/09/29 08:56:36;;;;;;;6.30;3.60;;;;;;;;;;10474404;28;20443;-83
2023/09/29 09:01:41;;;;;;;8.30;3.70;;;;;;;;;;10474928;28;20576;-82
2023/09/29 09:06:44;;;;;;;7.03;3.75;;;;;;;;;;10470855;28;20923;-81
2023/09/29 09:11:46;;;;;;;5.65;3.88;;;;;;;;;;10470680;28;20449;-81
2023/09/29 09:16:50;;;;;;;7.40;4.93;;;;;;;;;;10475342;28;20437;-81
2023/09/29 09:21:53;;;;;;;6.03;3.90;;;;;;;;;;10471687;28;20434;-82
2023/09/29 09:27:02;;;;;;;7.13;3.85;;;;;;;;;;10478782;28;20443;-80
2023/09/29 09:32:06;;;;;;;7.33;3.67;;;;;;;;;;10473220;28;20657;-78
2023/09/29 09:37:11;;;;;;;5.13;3.67;;;;;;;;;;10504847;27;20968;-79
2023/09/29 09:42:14;;;;;;;6.43;3.72;;;;;;;;;;10471836;28;20911;-81
2023/09/29 09:47:19;;;;;;;6.30;3.90;;;;;;;;;;10471614;28;20482;-80
2023/09/29 09:52:25;;;;;;;5.80;3.90;;;;;;;;;;10467130;28;20441;-80
2023/09/29 09:57:31;;;;;;;5.47;3.97;;;;;;;;;;10469129;28;20427;-79
2023/09/29 10:02:39;;;;;;;5.38;3.80;;;;;;;;;;10471967;28;20435;-79
2023/09/29 10:07:45;;;;;;;5.25;3.83;;;;;;;;;;10473031;28;20514;-82
2023/09/29 10:12:53;;;;;;;5.38;3.53;;;;;;;;;;10471263;28;20891;-82
2023/09/29 10:17:58;;;;;;;6.63;3.92;;;;;;;;;;10474184;28;20431;-83
2023/09/29 10:23:05;;;;;;;5.68;3.95;;;;;;;;;;10470175;28;20419;-82
2023/09/29 10:28:08;;;;;;;5.93;4.07;;;;;;;;;;10474648;28;20974;-83
2023/09/29 10:33:13;;;;;;;7.20;4.10;;;;;;;;;;10472433;28;20417;-84
2023/09/29 10:38:26;;;;;;;5.68;3.80;;;;;;;;;;10504415;28;20431;-83
2023/09/29 10:43:29;;;;;;;5.38;3.90;;;;;;;;;;10475544;28;20512;-80
2023/09/29 10:48:33;;;;;;;4.80;3.90;;;;;;;;;;10473097;28;20430;-79
2023/09/29 10:53:37;;;;;;;5.40;3.50;;;;;;;;;;10478968;28;20437;-80
2023/09/29 10:58:39;;;;;;;3.72;3.42;;;;;;;;;;10476699;28;20522;-79
2023/09/29 11:03:45;;;;;;;4.95;3.10;;;;;;;;;;10483816;28;20419;-80
2023/09/29 11:08:52;;;;;;;5.80;3.00;;;;;;;;;;10472101;28;20449;-79
2023/09/29 11:13:55;;;;;;;4.30;3.23;;;;;;;;;;10482151;28;20919;-80
2023/09/29 11:19:10;;;;;;;6.10;4.10;;;;;;;;;;10477131;28;20423;-80
2023/09/29 11:24:18;;;;;;;5.57;3.80;;;;;;;;;;10476136;28;20550;-81
2023/09/29 11:29:22;;;;;;;5.93;3.33;;;;;;;;;;10510801;27;20430;-81
2023/09/29 11:34:29;;;;;;;4.82;2.67;;;;;;;;;;10477188;28;20458;-79
2023/09/29 11:39:32;;;;;;;4.43;2.60;;;;;;;;;;10475100;28;20423;-79
2023/09/29 11:44:35;;;;;;;4.85;2.42;;;;;;;;;;10476555;28;20460;-80
2023/09/29 11:49:39;;;;;;;4.50;2.53;;;;;;;;;;10479903;28;20438;-79
2023/09/29 11:54:42;;;;;;;4.53;2.50;;;;;;;;;;10474580;28;20459;-81
2023/09/29 11:59:45;;;;;;;4.68;2.97;;;;;;;;;;10474844;28;20431;-80
2023/09/29 12:04:51;;;;;;;5.15;3.20;;;;;;;;;;10477389;28;20430;-80
2023/09/29 12:09:54;;;;;;;4.80;2.75;;;;;;;;;;10473150;28;20423;-80
2023/09/29 12:14:56;;;;;;;4.00;2.80;;;;;;;;;;10471632;28;20595;-80
2023/09/29 12:20:01;;;;;;;7.43;3.43;;;;;;;;;;10472519;28;20752;-80
2023/09/29 12:25:04;;;;;;;3.43;2.60;;;;;;;;;;10475644;28;20427;-80
2023/09/29 12:30:08;;;;;;;3.67;2.60;;;;;;;;;;10476972;28;20545;-78
2023/09/29 12:35:13;;;;;;;4.45;2.67;;;;;;;;;;10478903;28;20432;-81
2023/09/29 12:40:16;;;;;;;5.90;3.30;;;;;;;;;;10476931;28;20431;-82
2023/09/29 12:45:20;;;;;;;3.72;2.80;;;;;;;;;;10477326;28;20424;-83
2023/09/29 12:50:25;;;;;;;4.45;2.53;;;;;;;;;;10471715;28;20431;-81
2023/09/29 12:55:28;;;;;;;3.75;2.58;;;;;;;;;;10476952;28;20423;-82
2023/09/29 13:00:34;;;;;;;3.43;2.60;;;;;;;;;;10476955;28;20415;-81
2023/09/29 13:05:38;;;;;;;4.80;2.70;;;;;;;;;;10481118;28;20431;-81
2023/09/29 13:10:41;;;;;;;3.78;2.33;;;;;;;;;;10481642;28;20816;-81
2023/09/29 13:15:43;;;;;;;6.17;2.60;;;;;;;;;;10481094;28;20474;-81
2023/09/29 13:20:48;;;;;;;4.53;2.60;;;;;;;;;;10481054;28;20496;-81
2023/09/29 13:25:51;;;;;;;4.17;2.50;;;;;;;;;;10476949;28;20430;-81
2023/09/29 13:30:54;;;;;;;5.37;2.70;;;;;;;;;;10479001;28;20461;-81
2023/09/29 13:35:58;;;;;;;3.10;2.17;;;;;;;;;;10475466;28;20522;-80
2023/09/29 13:41:01;;;;;;;2.55;1.88;;;;;;;;;;10478577;28;20461;-81
2023/09/29 13:46:05;;;;;;;3.40;2.00;;;;;;;;;;10478851;28;20438;-81
2023/09/29 13:51:09;;;;;;;3.55;2.00;;;;;;;;;;10477197;28;20429;-81
2023/09/29 13:56:12;;;;;;;6.47;2.65;;;;;;;;;;10476558;28;20860;-82
2023/09/29 14:01:19;;;;;;;6.60;3.07;;;;;;;;;;10478353;28;20430;-81
2023/09/29 14:06:23;;;;;;;4.38;2.10;;;;;;;;;;10476558;28;20493;-82
2023/09/29 14:11:26;;;;;;;3.75;2.20;;;;;;;;;;10484430;28;20936;-82
2023/09/29 14:16:29;;;;;;;4.10;2.13;;;;;;;;;;10482873;28;20449;-82
2023/09/29 14:21:33;;;;;;;4.27;2.70;;;;;;;;;;10482475;28;20522;-81
2023/09/29 14:26:38;;;;;;;4.88;2.20;;;;;;;;;;10485231;28;20419;-84
2023/09/29 14:31:44;;;;;;;4.03;2.10;;;;;;;;;;10495867;28;21672;-83
2023/09/29 14:36:49;;;;;;;5.47;2.67;;;;;;;;;;10491284;28;20415;-81
2023/09/29 14:41:52;;;;;;;4.00;2.22;;;;;;;;;;10482338;28;20456;-80
2023/09/29 14:46:55;;;;;;;6.30;2.30;;;;;;;;;;10486007;28;20463;-81
2023/09/29 14:52:00;;;;;;;6.18;2.30;;;;;;;;;;10484426;28;20527;-79
2023/09/29 14:57:03;;;;;;;5.87;2.60;;;;;;;;;;10489505;28;20447;-79
2023/09/29 15:02:05;;;;;;;3.55;2.03;;;;;;;;;;10484452;28;20427;-81
2023/09/29 15:07:09;;;;;;;3.97;2.20;;;;;;;;;;10487773;28;20498;-79
2023/09/29 15:12:20;;;;;;;6.35;2.50;;;;;;;;;;10489748;28;20431;-78
2023/09/29 15:17:30;;;;;;;4.18;1.98;;;;;;;;;;10527866;28;20767;-79
2023/09/29 15:22:58;;;;;;;5.77;3.03;;;;;;;;;;10534164;28;20439;-79
2023/09/29 15:28:20;;;;;;;3.95;2.25;;;;;;;;;;10525449;28;20510;-80
2023/09/29 15:33:30;;;;;;;4.20;2.30;;;;;;;;;;10539599;28;20487;-81
2023/09/29 15:38:34;;;;;;;3.00;2.10;;;;;;;;;;10533835;28;20711;-81
2023/09/29 15:43:41;;;;;;;5.15;2.30;;;;;;;;;;10539732;28;20418;-81
2023/09/29 15:48:48;;;;;;;4.57;2.40;;;;;;;;;;10534463;28;20453;-80
2023/09/29 15:54:04;;;;;;;5.78;2.53;;;;;;;;;;10533313;28;20431;-82
2023/09/29 15:59:24;;;;;;;5.40;2.45;;;;;;;;;;10525010;28;20413;-81
2023/09/29 16:04:36;;;;;;;5.85;2.63;;;;;;;;;;10535604;28;20433;-81
2023/09/29 16:09:46;;;;;;;5.85;2.70;;;;;;;;;;10521083;28;20423;-80
2023/09/29 16:14:54;;;;;;;7.68;3.45;;;;;;;;;;10535418;28;20440;-78
2023/09/29 16:20:00;;;;;;;5.10;2.50;;;;;;;;;;10555485;27;20940;-80
2023/09/29 16:25:17;;;;;;;6.15;2.60;;;;;;;;;;10530796;28;20455;-81
2023/09/29 16:30:34;;;;;;;8.73;2.40;;;;;;;;;;10534877;28;20929;-83
2023/09/29 16:35:39;;;;;;;4.18;2.20;;;;;;;;;;10521918;28;20426;-83
2023/09/29 16:40:48;;;;;;;6.10;2.92;;;;;;;;;;10543086;28;20495;-84
2023/09/29 16:46:06;;;;;;;4.20;2.38;;;;;;;;;;10535381;28;20459;-82
2023/09/29 16:51:17;;;;;;;4.43;2.58;;;;;;;;;;10551596;28;20413;-83
2023/09/29 16:56:25;;;;;;;8.75;3.17;;;;;;;;;;10548354;28;20964;-83
2023/09/29 17:01:31;;;;;;;6.80;2.90;;;;;;;;;;10555938;27;20440;-86
2023/09/29 17:06:37;;;;;;;5.28;2.83;;;;;;;;;;10543026;28;20426;-84
2023/09/29 17:17:09;;;;;;;5.35;2.95;;;;;;;;;;10535345;28;20447;-85
2023/09/29 17:22:20;;;;;;;5.53;2.73;;;;;;;;;;10506374;28;20425;-84
2023/09/29 17:27:36;;;;;;;7.60;3.00;;;;;;;;;;10530316;28;20433;-85
2023/09/29 17:32:41;;;;;;;6.10;2.90;;;;;;;;;;10518020;28;20435;-84
2023/09/29 17:37:46;;;;;;;7.50;3.27;;;;;;;;;;10514940;27;20511;-86
2023/09/29 17:42:55;;;;;;;6.97;3.42;;;;;;;;;;10551789;28;20528;-85
2023/09/29 17:48:01;;;;;;;7.43;3.63;;;;;;;;;;10567099;27;20572;-85
2023/09/29 17:58:32;;;;;;;9.63;3.90;;;;;;;;;;10554005;28;20424;-85
2023/09/29 18:03:42;;;;;;;8.27;3.83;;;;;;;;;;10539641;28;20693;-83
2023/09/29 18:09:05;;;;;;;6.57;3.47;;;;;;;;;;10550981;28;20980;-84
2023/09/29 18:14:11;;;;;;;5.67;3.20;;;;;;;;;;10550635;28;20478;-83
2023/09/29 18:19:18;;;;;;;7.00;3.20;;;;;;;;;;10543456;28;20533;-84
2023/09/29 18:24:31;;;;;;;6.07;2.80;;;;;;;;;;10534962;28;20412;-83
2023/09/29 18:29:34;;;;;;;6.22;3.28;;;;;;;;;;10570193;28;20863;-85
2023/09/29 18:40:12;;;;;;;6.45;3.35;;;;;;;;;;10855773;22;20438;-72
2023/09/29 18:45:15;;;;;;;8.98;3.15;;;;;;;;;;10513601;28;20560;-74
2023/09/29 18:50:19;;;;;;;7.10;3.30;;;;;;;;;;10514386;28;20777;-73
2023/09/29 18:55:22;;;;;;;7.88;3.50;;;;;;;;;;10519689;28;20425;-73
2023/09/29 19:00:25;;;;;;;7.37;3.20;;;;;;;;;;10522540;28;20422;-73
2023/09/29 19:05:31;;;;;;;8.73;3.50;;;;;;;;;;10520099;28;20954;-74
2023/09/29 19:10:34;;;;;;;8.52;3.40;;;;;;;;;;10523045;28;20453;-73
2023/09/29 19:15:42;;;;;;;6.78;3.40;;;;;;;;;;10524859;28;20432;-74
2023/09/29 19:20:46;;;;;;;7.40;3.57;;;;;;;;;;10529405;28;20499;-73
2023/09/29 19:25:49;;;;;;;6.45;3.50;;;;;;;;;;10529349;28;20897;-73
2023/09/29 19:30:52;;;;;;;5.60;3.60;;;;;;;;;;10523591;28;20417;-73
2023/09/29 19:35:56;;;;;;;7.80;3.63;;;;;;;;;;10527531;28;20959;-73
2023/09/29 19:40:59;;;;;;;7.65;3.65;;;;;;;;;;10527553;28;20441;-74
2023/09/29 19:46:02;;;;;;;6.32;3.63;;;;;;;;;;10525833;28;20453;-73
2023/09/29 19:51:09;;;;;;;8.13;4.00;;;;;;;;;;10526365;28;20832;-73
2023/09/29 19:56:20;;;;;;;6.35;3.50;;;;;;;;;;10527371;28;20418;-73
2023/09/29 20:01:22;;;;;;;7.18;3.35;;;;;;;;;;10527043;28;20425;-73
2023/09/29 20:06:27;;;;;;;9.55;4.32;;;;;;;;;;10525915;28;21011;-73
2023/09/29 20:11:30;;;;;;;7.63;3.73;;;;;;;;;;10524116;28;20516;-72
2023/09/29 20:16:32;;;;;;;7.22;3.83;;;;;;;;;;10525445;28;20790;-76
2023/09/29 20:21:36;;;;;;;8.60;3.70;;;;;;;;;;10527438;28;20430;-73
2023/09/29 20:26:39;;;;;;;10.50;3.80;;;;;;;;;;10525117;28;20422;-73
2023/09/29 20:31:42;;;;;;;10.33;4.10;;;;;;;;;;10525440;28;20515;-73
2023/09/29 20:36:46;;;;;;;9.05;4.20;;;;;;;;;;10524443;28;20832;-73
2023/09/29 20:41:49;;;;;;;11.30;4.20;;;;;;;;;;10526440;28;20888;-73
2023/09/29 20:46:52;;;;;;;9.57;3.80;;;;;;;;;;10520479;28;20509;-74
2023/09/29 20:51:56;;;;;;;8.93;3.95;;;;;;;;;;10517358;28;20456;-73
2023/09/29 20:56:59;;;;;;;8.50;4.27;;;;;;;;;;10519414;28;20520;-75
2023/09/29 21:02:02;;;;;;;10.27;4.30;;;;;;;;;;10500454;28;20521;-73
2023/09/29 21:07:06;;;;;;;10.63;5.20;;;;;;;;;;10503614;28;20512;-72
2023/09/29 21:12:10;;;;;;;13.65;5.30;;;;;;;;;;10509468;28;20914;-72
2023/09/29 21:17:13;;;;;;;18.77;6.47;;;;;;;;;;10515604;28;20900;-72
2023/09/29 21:22:18;;;;;;;18.35;7.00;;;;;;;;;;10517170;28;20465;-71
2023/09/29 21:27:21;;;;;;;22.50;7.20;;;;;;;;;;10515216;28;20512;-72
2023/09/29 21:32:23;;;;;;;21.97;7.33;;;;;;;;;;10517495;28;20779;-71
2023/09/29 21:37:28;;;;;;;21.15;7.53;;;;;;;;;;10515858;28;20497;-71
2023/09/29 21:42:31;;;;;;;20.25;7.57;;;;;;;;;;10516991;28;20533;-71
2023/09/29 21:47:33;;;;;;;21.23;7.43;;;;;;;;;;10513484;28;20437;-71
2023/09/29 21:52:38;;;;;;;23.10;8.00;;;;;;;;;;10512359;28;20500;-70
2023/09/29 21:57:40;;;;;;;24.30;8.05;;;;;;;;;;10520393;28;20446;-72
2023/09/29 22:02:43;;;;;;;20.25;7.13;;;;;;;;;;10517644;28;20430;-71
2023/09/29 22:07:48;;;;;;;21.17;7.00;;;;;;;;;;10509079;28;20441;-71
2023/09/29 22:12:51;;;;;;;19.77;6.78;;;;;;;;;;10515930;28;20413;-72
2023/09/29 22:17:54;;;;;;;21.15;7.15;;;;;;;;;;10523517;28;20425;-74
2023/09/29 22:22:58;;;;;;;21.70;7.43;;;;;;;;;;10521639;28;20456;-72
2023/09/29 22:28:02;;;;;;;19.73;6.97;;;;;;;;;;10520885;28;20414;-73
2023/09/29 22:33:05;;;;;;;19.13;6.50;;;;;;;;;;10520531;28;20433;-72
2023/09/29 22:38:11;;;;;;;20.90;7.13;;;;;;;;;;10519569;28;20575;-72
2023/09/29 22:43:14;;;;;;;18.88;6.95;;;;;;;;;;10518125;28;20508;-71
2023/09/29 22:48:17;;;;;;;20.80;6.65;;;;;;;;;;10527510;28;20494;-71
2023/09/29 22:53:22;;;;;;;22.30;6.78;;;;;;;;;;10524327;28;20423;-71
2023/09/29 22:58:25;;;;;;;24.08;7.20;;;;;;;;;;10527072;28;20501;-72
2023/09/29 23:03:29;;;;;;;25.70;8.57;;;;;;;;;;10522074;28;20513;-71
2023/09/29 23:08:34;;;;;;;24.03;7.73;;;;;;;;;;10530304;28;20526;-71
2023/09/29 23:13:37;;;;;;;23.77;7.57;;;;;;;;;;10526231;28;20416;-71
2023/09/29 23:18:40;;;;;;;26.27;7.70;;;;;;;;;;10521781;28;20418;-71
2023/09/29 23:23:44;;;;;;;22.42;8.15;;;;;;;;;;10522560;28;20413;-70
2023/09/29 23:28:47;;;;;;;24.05;7.57;;;;;;;;;;10523142;28;20457;-70
2023/09/29 23:33:50;;;;;;;24.63;8.00;;;;;;;;;;10507150;28;20972;-72
2023/09/29 23:38:54;;;;;;;26.27;7.88;;;;;;;;;;10526873;28;20429;-71
2023/09/29 23:43:56;;;;;;;26.27;7.80;;;;;;;;;;10522836;28;20425;-71
2023/09/29 23:48:59;;;;;;;27.43;8.50;;;;;;;;;;10522885;28;20409;-70
2023/09/29 23:54:06;;;;;;;25.30;9.02;;;;;;;;;;10523841;28;20952;-70
2023/09/29 23:59:09;;;;;;;23.00;7.78;;;;;;;;;;10528532;28;20421;-70
